createdAt,value
2024-03-07T00:00:51.554Z,0.63
2024-03-07T00:01:57.940Z,0.63
2024-03-07T00:03:05.014Z,0.62
2024-03-07T00:04:08.170Z,0.62
2024-03-07T00:05:12.337Z,0.64
2024-03-07T00:06:16.107Z,0.63
2024-03-07T00:08:29.057Z,0.74
2024-03-07T00:09:35.017Z,0.61
2024-03-07T00:10:37.771Z,0.62
2024-03-07T00:11:40.490Z,0.63
2024-03-07T00:12:43.586Z,0.61
2024-03-07T00:13:47.798Z,0.63
2024-03-07T00:14:49.889Z,0.64
2024-03-07T00:15:51.974Z,0.66
2024-03-07T00:16:55.883Z,0.67
2024-03-07T00:17:58.813Z,0.66
2024-03-07T00:19:01.067Z,0.65
2024-03-07T00:20:04.394Z,0.67
2024-03-07T00:21:06.603Z,0.68
2024-03-07T00:22:08.943Z,0.67
2024-03-07T00:23:11.556Z,0.67
2024-03-07T00:24:14.279Z,0.66
2024-03-07T00:25:16.908Z,0.67
2024-03-07T00:26:19.732Z,0.67
2024-03-07T00:27:21.990Z,0.65
2024-03-07T00:28:24.502Z,0.67
2024-03-07T00:29:26.810Z,0.68
2024-03-07T00:30:29.880Z,0.67
2024-03-07T00:31:32.502Z,0.68
2024-03-07T00:32:34.671Z,0.69
2024-03-07T00:33:51.515Z,0.70
2024-03-07T00:34:42.240Z,0.70
2024-03-07T00:35:44.422Z,0.70
2024-03-07T00:36:47.256Z,0.71
2024-03-07T00:37:49.331Z,0.71
2024-03-07T00:38:52.567Z,0.72
2024-03-07T00:39:54.820Z,0.74
2024-03-07T00:40:57.299Z,0.73
2024-03-07T00:41:59.260Z,0.73
2024-03-07T00:43:01.999Z,0.72
2024-03-07T00:44:04.726Z,0.73
2024-03-07T00:45:07.384Z,0.74
2024-03-07T00:46:10.019Z,0.72
2024-03-07T00:47:13.019Z,0.72
2024-03-07T00:48:15.777Z,0.69
2024-03-07T00:49:18.639Z,0.69
2024-03-07T00:50:20.698Z,0.69
2024-03-07T00:51:23.298Z,0.70
2024-03-07T00:53:24.717Z,0.83
2024-03-07T00:54:27.283Z,0.72
2024-03-07T00:55:31.308Z,0.70
2024-03-07T00:56:33.688Z,0.69
2024-03-07T00:57:37.335Z,0.69
2024-03-07T00:58:39.701Z,0.69
2024-03-07T00:59:41.646Z,0.72
2024-03-07T01:00:44.009Z,0.69
2024-03-07T01:01:46.602Z,0.72
2024-03-07T01:02:49.031Z,0.72
2024-03-07T01:03:51.375Z,0.72
2024-03-07T01:04:54.811Z,0.72
2024-03-07T01:05:57.156Z,0.73
2024-03-07T01:07:00.775Z,0.73
2024-03-07T01:08:03.228Z,0.73
2024-03-07T01:09:05.378Z,0.72
2024-03-07T01:10:08.412Z,0.72
2024-03-07T01:11:11.010Z,0.70
2024-03-07T01:12:14.122Z,0.68
2024-03-07T01:13:16.444Z,0.69
2024-03-07T01:14:19.264Z,0.69
2024-03-07T01:15:21.392Z,0.71
2024-03-07T01:16:23.694Z,0.72
2024-03-07T01:17:26.232Z,0.72
2024-03-07T01:18:28.932Z,0.70
2024-03-07T01:19:30.988Z,0.70
2024-03-07T01:20:33.502Z,0.72
2024-03-07T01:21:38.716Z,0.71
2024-03-07T01:22:40.489Z,0.72
2024-03-07T01:23:42.602Z,0.69
2024-03-07T01:24:45.081Z,0.73
2024-03-07T01:25:47.549Z,0.72
2024-03-07T01:26:50.151Z,0.72
2024-03-07T01:27:52.622Z,0.73
2024-03-07T01:28:56.088Z,0.72
2024-03-07T01:29:58.376Z,0.68
2024-03-07T01:31:00.724Z,0.66
2024-03-07T01:32:03.292Z,0.68
2024-03-07T01:33:05.597Z,0.67
2024-03-07T01:34:07.738Z,0.66
2024-03-07T01:35:10.329Z,0.67
2024-03-07T01:36:13.008Z,0.67
2024-03-07T01:37:15.310Z,0.67
2024-03-07T01:38:17.459Z,0.67
2024-03-07T01:39:19.648Z,0.64
2024-03-07T01:40:21.790Z,0.65
2024-03-07T01:41:24.960Z,0.65
2024-03-07T01:42:27.223Z,0.65
2024-03-07T01:43:29.973Z,0.66
2024-03-07T01:44:32.225Z,0.66
2024-03-07T01:45:35.404Z,0.67
2024-03-07T01:46:37.751Z,0.69
2024-03-07T01:47:40.162Z,0.66
2024-03-07T01:48:42.631Z,0.67
2024-03-07T01:49:45.522Z,0.68
2024-03-07T01:50:48.981Z,0.67
2024-03-07T01:51:52.054Z,0.68
2024-03-07T01:52:55.732Z,0.68
2024-03-07T01:53:58.415Z,0.65
2024-03-07T01:55:02.214Z,0.63
2024-03-07T01:56:05.393Z,0.62
2024-03-07T01:57:08.463Z,0.62
2024-03-07T01:58:14.283Z,0.62
2024-03-07T01:59:17.655Z,0.63
2024-03-07T02:00:20.906Z,0.64
2024-03-07T02:01:23.597Z,0.65
2024-03-07T02:02:26.219Z,0.66
2024-03-07T02:03:28.793Z,0.64
2024-03-07T02:04:31.351Z,0.63
2024-03-07T02:05:34.801Z,0.63
2024-03-07T02:06:40.352Z,0.60
2024-03-07T02:07:44.269Z,0.59
2024-03-07T02:08:46.549Z,0.60
2024-03-07T02:09:49.023Z,0.59
2024-03-07T02:10:51.632Z,0.60
2024-03-07T02:11:53.932Z,0.60
2024-03-07T02:12:57.423Z,0.62
2024-03-07T02:14:00.084Z,0.61
2024-03-07T02:15:02.637Z,0.63
2024-03-07T02:16:05.286Z,0.62
2024-03-07T02:17:08.536Z,0.65
2024-03-07T02:18:11.385Z,0.63
2024-03-07T02:19:15.432Z,0.64
2024-03-07T02:20:17.660Z,0.66
2024-03-07T02:21:19.813Z,0.63
2024-03-07T02:22:22.724Z,0.65
2024-03-07T02:23:24.968Z,0.63
2024-03-07T02:24:26.964Z,0.65
2024-03-07T02:25:31.051Z,0.65
2024-03-07T02:26:35.601Z,0.65
2024-03-07T02:27:38.832Z,0.65
2024-03-07T02:28:41.105Z,0.66
2024-03-07T02:29:43.455Z,0.67
2024-03-07T02:30:45.597Z,0.66
2024-03-07T02:31:47.686Z,0.64
2024-03-07T02:32:49.944Z,0.64
2024-03-07T02:33:52.137Z,0.63
2024-03-07T02:34:54.203Z,0.63
2024-03-07T02:35:56.933Z,0.64
2024-03-07T02:36:59.080Z,0.61
2024-03-07T02:38:05.121Z,0.63
2024-03-07T02:39:08.249Z,0.63
2024-03-07T02:40:11.081Z,0.65
2024-03-07T02:41:13.149Z,0.62
2024-03-07T02:42:15.378Z,0.61
2024-03-07T02:43:17.983Z,0.62
2024-03-07T02:44:20.441Z,0.57
2024-03-07T02:45:22.814Z,0.57
2024-03-07T02:46:25.013Z,0.55
2024-03-07T02:47:27.527Z,0.54
2024-03-07T02:48:29.865Z,0.54
2024-03-07T02:49:32.665Z,0.54
2024-03-07T02:50:35.242Z,0.52
2024-03-07T02:51:37.789Z,0.53
2024-03-07T02:52:40.400Z,0.54
2024-03-07T02:53:42.487Z,0.53
2024-03-07T02:54:44.940Z,0.54
2024-03-07T02:55:48.181Z,0.56
2024-03-07T02:56:50.683Z,0.56
2024-03-07T02:57:53.195Z,0.56
2024-03-07T02:58:55.699Z,0.58
2024-03-07T02:59:57.897Z,0.57
2024-03-07T03:01:02.021Z,0.59
2024-03-07T03:02:04.780Z,0.59
2024-03-07T03:03:07.399Z,0.57
2024-03-07T03:04:10.661Z,0.56
2024-03-07T03:05:13.579Z,0.57
2024-03-07T03:06:16.030Z,0.55
2024-03-07T03:07:18.042Z,0.55
2024-03-07T03:08:20.173Z,0.54
2024-03-07T03:09:22.250Z,0.55
2024-03-07T03:12:40.965Z,0.62
2024-03-07T03:13:43.814Z,0.52
2024-03-07T03:14:46.209Z,0.55
2024-03-07T03:15:48.421Z,0.55
2024-03-07T03:16:50.688Z,0.57
2024-03-07T03:17:52.950Z,0.59
2024-03-07T03:18:55.134Z,0.56
2024-03-07T03:19:57.598Z,0.60
2024-03-07T03:21:00.077Z,0.58
2024-03-07T03:22:02.722Z,0.59
2024-03-07T03:23:14.910Z,0.56
2024-03-07T03:24:10.517Z,0.57
2024-03-07T03:25:13.014Z,0.59
2024-03-07T03:26:15.508Z,0.59
2024-03-07T03:27:17.436Z,0.60
2024-03-07T03:28:19.635Z,0.59
2024-03-07T03:29:21.883Z,0.59
2024-03-07T03:30:24.266Z,0.58
2024-03-07T03:31:26.910Z,0.58
2024-03-07T03:32:29.131Z,0.56
2024-03-07T03:33:31.406Z,0.57
2024-03-07T03:34:34.140Z,0.55
2024-03-07T03:36:46.924Z,0.66
2024-03-07T03:37:49.277Z,0.50
2024-03-07T03:38:52.474Z,0.50
2024-03-07T03:39:55.371Z,0.51
2024-03-07T03:40:57.540Z,0.51
2024-03-07T03:41:59.640Z,0.51
2024-03-07T03:43:02.110Z,0.52
2024-03-07T03:44:04.491Z,0.52
2024-03-07T03:45:07.981Z,0.52
2024-03-07T03:46:11.338Z,0.53
2024-03-07T03:47:13.820Z,0.51
2024-03-07T03:48:16.770Z,0.53
2024-03-07T03:49:19.805Z,0.53
2024-03-07T03:50:22.848Z,0.50
2024-03-07T03:51:24.804Z,0.51
2024-03-07T03:52:26.842Z,0.53
2024-03-07T03:53:29.043Z,0.55
2024-03-07T03:54:31.261Z,0.54
2024-03-07T03:55:35.633Z,0.55
2024-03-07T03:56:38.056Z,0.55
2024-03-07T03:57:41.939Z,0.54
2024-03-07T03:58:44.172Z,0.55
2024-03-07T03:59:47.155Z,0.55
2024-03-07T04:00:49.793Z,0.55
2024-03-07T04:01:52.228Z,0.54
2024-03-07T04:02:54.604Z,0.53
2024-03-07T04:03:56.828Z,0.54
2024-03-07T04:04:58.845Z,0.52
2024-03-07T04:06:00.995Z,0.53
2024-03-07T04:07:03.238Z,0.51
2024-03-07T04:08:05.560Z,0.50
2024-03-07T04:09:07.505Z,0.51
2024-03-07T04:10:12.046Z,0.48
2024-03-07T04:11:14.321Z,0.46
2024-03-07T04:12:16.871Z,0.45
2024-03-07T04:13:18.935Z,0.43
2024-03-07T04:14:21.458Z,0.44
2024-03-07T04:15:23.759Z,0.44
2024-03-07T04:16:26.458Z,0.45
2024-03-07T04:17:28.704Z,0.45
2024-03-07T04:18:31.223Z,0.45
2024-03-07T04:21:04.569Z,0.59
2024-03-07T04:22:07.202Z,0.43
2024-03-07T04:23:12.669Z,0.47
2024-03-07T04:24:15.681Z,0.47
2024-03-07T04:25:19.740Z,0.47
2024-03-07T04:26:22.362Z,0.46
2024-03-07T04:27:24.327Z,0.45
2024-03-07T04:28:26.595Z,0.45
2024-03-07T04:29:29.124Z,0.44
2024-03-07T04:30:31.739Z,0.44
2024-03-07T04:31:33.751Z,0.43
2024-03-07T04:32:37.978Z,0.42
2024-03-07T04:33:40.258Z,0.44
2024-03-07T04:34:42.420Z,0.42
2024-03-07T04:35:44.840Z,0.43
2024-03-07T04:36:47.142Z,0.43
2024-03-07T04:37:50.678Z,0.43
2024-03-07T04:38:53.536Z,0.43
2024-03-07T04:39:55.913Z,0.44
2024-03-07T04:40:59.045Z,0.43
2024-03-07T04:42:05.598Z,0.45
2024-03-07T04:43:07.786Z,0.46
2024-03-07T04:44:10.008Z,0.44
2024-03-07T04:45:13.072Z,0.45
2024-03-07T04:46:15.359Z,0.46
2024-03-07T04:47:17.227Z,0.46
2024-03-07T04:48:19.318Z,0.46
2024-03-07T04:49:22.635Z,0.47
2024-03-07T04:50:25.325Z,0.45
2024-03-07T04:51:27.791Z,0.48
2024-03-07T04:52:29.987Z,0.50
2024-03-07T04:53:32.467Z,0.48
2024-03-07T04:54:34.608Z,0.49
2024-03-07T04:55:36.840Z,0.48
2024-03-07T04:56:39.306Z,0.49
2024-03-07T04:57:41.624Z,0.45
2024-03-07T04:58:43.757Z,0.45
2024-03-07T04:59:45.988Z,0.47
2024-03-07T05:00:48.645Z,0.48
2024-03-07T05:01:51.300Z,0.44
2024-03-07T05:02:53.437Z,0.46
2024-03-07T05:03:55.805Z,0.45
2024-03-07T05:04:58.192Z,0.44
2024-03-07T05:06:00.675Z,0.44
2024-03-07T05:07:03.227Z,0.44
2024-03-07T05:08:06.181Z,0.45
2024-03-07T05:09:09.610Z,0.44
2024-03-07T05:10:12.527Z,0.42
2024-03-07T05:11:14.938Z,0.40
2024-03-07T05:12:17.094Z,0.41
2024-03-07T05:13:19.316Z,0.41
2024-03-07T05:14:22.110Z,0.40
2024-03-07T05:15:24.664Z,0.42
2024-03-07T05:16:31.413Z,0.42
2024-03-07T05:17:33.912Z,0.41
2024-03-07T05:18:36.658Z,0.40
2024-03-07T05:19:38.847Z,0.40
2024-03-07T05:20:41.385Z,0.40
2024-03-07T05:21:43.858Z,0.40
2024-03-07T05:22:46.331Z,0.39
2024-03-07T05:23:49.576Z,0.38
2024-03-07T05:24:51.680Z,0.34
2024-03-07T05:25:54.104Z,0.32
2024-03-07T05:26:56.334Z,0.33
2024-03-07T05:27:58.348Z,0.35
2024-03-07T05:29:02.765Z,0.35
2024-03-07T05:30:09.321Z,0.36
2024-03-07T05:31:10.733Z,0.35
2024-03-07T05:33:31.269Z,0.46
2024-03-07T05:34:33.392Z,0.31
2024-03-07T05:35:36.577Z,0.33
2024-03-07T05:36:39.169Z,0.34
2024-03-07T05:37:42.512Z,0.34
2024-03-07T05:38:45.383Z,0.35
2024-03-07T05:39:52.316Z,0.35
2024-03-07T05:40:54.665Z,0.35
2024-03-07T05:41:58.797Z,0.37
2024-03-07T05:43:00.885Z,0.38
2024-03-07T05:44:03.252Z,0.38
2024-03-07T05:45:07.006Z,0.39
2024-03-07T05:46:09.470Z,0.42
2024-03-07T05:47:11.632Z,0.43
2024-03-07T05:48:16.819Z,0.43
2024-03-07T05:49:19.620Z,0.43
2024-03-07T05:50:23.179Z,0.40
2024-03-07T05:51:25.630Z,0.40
2024-03-07T05:52:27.739Z,0.39
2024-03-07T05:53:30.302Z,0.39
2024-03-07T05:54:34.108Z,0.40
2024-03-07T05:55:36.405Z,0.39
2024-03-07T05:56:39.433Z,0.38
2024-03-07T05:57:44.300Z,0.38
2024-03-07T05:58:46.214Z,0.39
2024-03-07T05:59:48.669Z,0.37
2024-03-07T06:00:51.584Z,0.36
2024-03-07T06:01:54.307Z,0.35
2024-03-07T06:02:57.252Z,0.35
2024-03-07T06:03:59.778Z,0.34
2024-03-07T06:05:01.983Z,0.33
2024-03-07T06:06:04.651Z,0.33
2024-03-07T06:07:07.227Z,0.31
2024-03-07T06:08:10.710Z,0.32
2024-03-07T06:09:14.209Z,0.31
2024-03-07T06:10:17.161Z,0.32
2024-03-07T06:11:19.515Z,0.31
2024-03-07T06:12:27.136Z,0.29
2024-03-07T06:13:25.952Z,0.29
2024-03-07T06:14:28.181Z,0.28
2024-03-07T06:15:30.224Z,0.29
2024-03-07T06:16:35.655Z,0.29
2024-03-07T06:17:38.002Z,0.29
2024-03-07T06:19:50.457Z,0.36
2024-03-07T06:20:53.387Z,0.23
2024-03-07T06:21:55.990Z,0.23
2024-03-07T06:22:58.629Z,0.24
2024-03-07T06:24:02.133Z,0.25
2024-03-07T06:25:04.706Z,0.28
2024-03-07T06:26:07.484Z,0.29
2024-03-07T06:27:09.672Z,0.29
2024-03-07T06:28:12.758Z,0.29
2024-03-07T06:29:19.269Z,0.29
2024-03-07T06:30:21.896Z,0.29
2024-03-07T06:31:24.605Z,0.27
2024-03-07T06:32:26.835Z,0.28
2024-03-07T06:33:29.197Z,0.28
2024-03-07T06:34:31.127Z,0.29
2024-03-07T06:35:34.205Z,0.29
2024-03-07T06:36:37.153Z,0.28
2024-03-07T06:38:48.745Z,0.39
2024-03-07T06:39:51.432Z,0.31
2024-03-07T06:40:53.576Z,0.30
2024-03-07T06:41:56.106Z,0.31
2024-03-07T06:42:58.789Z,0.32
2024-03-07T06:44:02.409Z,0.32
2024-03-07T06:45:05.290Z,0.33
2024-03-07T06:46:07.981Z,0.33
2024-03-07T06:47:10.420Z,0.35
2024-03-07T06:48:12.766Z,0.36
2024-03-07T06:49:14.969Z,0.38
2024-03-07T06:50:27.017Z,0.37
2024-03-07T06:51:21.496Z,0.38
2024-03-07T06:52:23.653Z,0.37
2024-03-07T06:53:25.487Z,0.38
2024-03-07T06:54:27.457Z,0.40
2024-03-07T06:55:31.598Z,0.40
2024-03-07T06:56:34.356Z,0.41
2024-03-07T06:57:36.482Z,0.42
2024-03-07T06:58:39.695Z,0.42
2024-03-07T06:59:43.124Z,0.42
2024-03-07T07:00:45.360Z,0.41
2024-03-07T07:01:47.581Z,0.42
2024-03-07T07:02:50.461Z,0.41
2024-03-07T07:03:52.720Z,0.42
2024-03-07T07:04:55.037Z,0.42
2024-03-07T07:05:57.209Z,0.43
2024-03-07T07:06:59.440Z,0.43
2024-03-07T07:08:01.836Z,0.43
2024-03-07T07:09:04.099Z,0.43
2024-03-07T07:10:07.078Z,0.43
2024-03-07T07:11:09.310Z,0.45
2024-03-07T07:12:12.334Z,0.45
2024-03-07T07:13:14.731Z,0.43
2024-03-07T07:14:17.286Z,0.44
2024-03-07T07:15:19.680Z,0.44
2024-03-07T07:16:22.250Z,0.45
2024-03-07T07:17:24.887Z,0.48
2024-03-07T07:18:27.756Z,0.48
2024-03-07T07:19:30.278Z,0.45
2024-03-07T07:20:32.415Z,0.47
2024-03-07T07:21:35.063Z,0.49
2024-03-07T07:22:38.053Z,0.50
2024-03-07T07:23:42.274Z,0.49
2024-03-07T07:24:45.789Z,0.51
2024-03-07T07:25:49.786Z,0.52
2024-03-07T07:26:54.123Z,0.53
2024-03-07T07:27:56.940Z,0.52
2024-03-07T07:28:58.919Z,0.52
2024-03-07T07:30:01.943Z,0.49
2024-03-07T07:31:05.053Z,0.49
2024-03-07T07:32:07.309Z,0.49
2024-03-07T07:33:09.489Z,0.48
2024-03-07T07:34:11.826Z,0.47
2024-03-07T07:35:14.035Z,0.45
2024-03-07T07:36:16.261Z,0.46
2024-03-07T07:37:18.592Z,0.45
2024-03-07T07:38:20.675Z,0.45
2024-03-07T07:39:23.039Z,0.48
2024-03-07T07:40:25.734Z,0.50
2024-03-07T07:41:28.545Z,0.47
2024-03-07T07:42:30.560Z,0.51
2024-03-07T07:43:41.897Z,0.51
2024-03-07T07:44:38.316Z,0.52
2024-03-07T07:45:40.491Z,0.51
2024-03-07T07:46:43.165Z,0.51
2024-03-07T07:47:47.010Z,0.52
2024-03-07T07:48:49.517Z,0.53
2024-03-07T07:49:52.540Z,0.55
2024-03-07T07:50:54.956Z,0.56
2024-03-07T07:51:57.154Z,0.55
2024-03-07T07:52:59.639Z,0.58
2024-03-07T07:54:01.782Z,0.59
2024-03-07T07:55:04.410Z,0.60
2024-03-07T07:56:08.943Z,0.60
2024-03-07T07:57:11.262Z,0.60
2024-03-07T07:58:13.455Z,0.60
2024-03-07T07:59:15.598Z,0.62
2024-03-07T08:00:19.561Z,0.61
2024-03-07T08:01:22.197Z,0.62
2024-03-07T08:02:24.665Z,0.63
2024-03-07T08:03:26.741Z,0.63
2024-03-07T08:04:28.704Z,0.65
2024-03-07T08:05:32.149Z,0.64
2024-03-07T08:06:34.472Z,0.65
2024-03-07T08:07:36.597Z,0.65
2024-03-07T08:08:38.834Z,0.68
2024-03-07T08:09:41.699Z,0.69
2024-03-07T08:10:45.877Z,0.70
2024-03-07T08:11:48.827Z,0.72
2024-03-07T08:12:51.003Z,0.74
2024-03-07T08:13:53.414Z,0.77
2024-03-07T08:14:56.861Z,0.76
2024-03-07T08:15:59.452Z,0.74
2024-03-07T08:17:01.778Z,0.77
2024-03-07T08:18:04.632Z,0.77
2024-03-07T08:19:07.327Z,0.75
2024-03-07T08:20:12.045Z,0.78
2024-03-07T08:21:14.459Z,0.79
2024-03-07T08:22:17.111Z,0.79
2024-03-07T08:23:19.389Z,0.81
2024-03-07T08:24:22.508Z,0.80
2024-03-07T08:25:28.696Z,0.82
2024-03-07T08:26:31.295Z,0.83
2024-03-07T08:27:33.221Z,0.83
2024-03-07T08:28:35.696Z,0.83
2024-03-07T08:29:37.760Z,0.83
2024-03-07T08:30:40.308Z,0.83
2024-03-07T08:31:42.481Z,0.81
2024-03-07T08:34:03.048Z,0.91
2024-03-07T08:35:06.132Z,0.77
2024-03-07T08:36:08.905Z,0.80
2024-03-07T08:37:11.686Z,0.79
2024-03-07T08:38:13.914Z,0.82
2024-03-07T08:39:18.724Z,0.84
2024-03-07T08:40:25.183Z,0.84
2024-03-07T08:41:26.456Z,0.83
2024-03-07T08:42:28.604Z,0.83
2024-03-07T08:43:30.886Z,0.86
2024-03-07T08:44:33.382Z,0.87
2024-03-07T08:45:36.408Z,0.86
2024-03-07T08:46:39.202Z,0.85
2024-03-07T08:47:41.407Z,0.87
2024-03-07T08:48:43.510Z,0.89
2024-03-07T08:49:46.185Z,0.89
2024-03-07T08:50:49.022Z,0.91
2024-03-07T08:51:51.209Z,0.89
2024-03-07T08:52:53.423Z,0.88
2024-03-07T08:53:55.648Z,0.86
2024-03-07T08:54:58.882Z,0.85
2024-03-07T08:56:00.958Z,0.86
2024-03-07T08:57:03.567Z,0.83
2024-03-07T08:58:05.735Z,0.84
2024-03-07T08:59:08.249Z,0.83
2024-03-07T09:00:13.488Z,0.83
2024-03-07T09:01:15.644Z,0.79
2024-03-07T09:02:18.860Z,0.79
2024-03-07T09:03:20.894Z,0.79
2024-03-07T09:04:23.567Z,0.77
2024-03-07T09:05:27.208Z,0.78
2024-03-07T09:06:29.474Z,0.80
2024-03-07T09:07:32.252Z,0.80
2024-03-07T09:08:35.053Z,0.81
2024-03-07T09:09:37.224Z,0.82
2024-03-07T09:10:40.075Z,0.81
2024-03-07T09:11:44.809Z,0.83
2024-03-07T09:12:49.115Z,0.84
2024-03-07T09:13:51.227Z,0.84
2024-03-07T09:14:54.442Z,0.83
2024-03-07T09:15:56.732Z,0.85
2024-03-07T09:16:59.195Z,0.87
2024-03-07T09:18:01.414Z,0.88
2024-03-07T09:19:03.725Z,0.90
2024-03-07T09:20:08.834Z,0.89
2024-03-07T09:21:11.411Z,0.94
2024-03-07T09:22:13.986Z,0.97
2024-03-07T09:23:16.689Z,0.97
2024-03-07T09:24:20.245Z,0.99
2024-03-07T09:25:26.475Z,0.99
2024-03-07T09:26:29.938Z,0.99
2024-03-07T09:27:32.090Z,0.99
2024-03-07T09:28:34.286Z,0.98
2024-03-07T09:29:36.506Z,0.98
2024-03-07T09:30:39.438Z,0.98
2024-03-07T09:31:42.323Z,0.99
2024-03-07T09:32:44.843Z,1.00
2024-03-07T09:33:47.535Z,1.01
2024-03-07T09:34:50.080Z,1.00
2024-03-07T09:35:53.184Z,1.00
2024-03-07T09:36:55.451Z,0.99
2024-03-07T09:37:58.234Z,0.97
2024-03-07T09:39:01.982Z,0.96
2024-03-07T09:40:06.218Z,0.95
2024-03-07T09:41:08.554Z,0.97
2024-03-07T09:42:12.975Z,0.96
2024-03-07T09:43:17.930Z,0.96
2024-03-07T09:44:24.019Z,0.97
2024-03-07T09:45:30.339Z,0.97
2024-03-07T09:46:33.534Z,0.98
2024-03-07T09:47:36.074Z,0.97
2024-03-07T09:48:38.953Z,0.98
2024-03-07T09:49:41.668Z,1.01
2024-03-07T09:50:46.604Z,1.00
2024-03-07T09:51:51.754Z,1.00
2024-03-07T09:52:54.870Z,1.00
2024-03-07T09:53:59.489Z,0.99
2024-03-07T09:55:02.180Z,1.01
2024-03-07T09:56:07.365Z,1.00
2024-03-07T09:57:11.649Z,1.01
2024-03-07T09:58:17.482Z,1.03
2024-03-07T09:59:21.029Z,1.05
2024-03-07T10:00:23.499Z,1.07
2024-03-07T10:01:31.306Z,1.08
2024-03-07T10:02:36.882Z,1.09
2024-03-07T10:03:42.671Z,1.09
2024-03-07T10:04:47.181Z,1.10
2024-03-07T10:05:49.930Z,1.12
2024-03-07T10:06:53.396Z,1.10
2024-03-07T10:07:55.756Z,1.13
2024-03-07T10:08:59.079Z,1.15
2024-03-07T10:10:01.370Z,1.15
2024-03-07T10:11:04.147Z,1.17
2024-03-07T10:12:07.431Z,1.17
2024-03-07T10:13:09.914Z,1.17
2024-03-07T10:14:11.995Z,1.19
2024-03-07T10:15:14.199Z,1.20
2024-03-07T10:16:17.199Z,1.21
2024-03-07T10:17:20.355Z,1.22
2024-03-07T10:18:23.042Z,1.21
2024-03-07T10:19:25.307Z,1.22
2024-03-07T10:20:28.291Z,1.25
2024-03-07T10:21:30.346Z,1.25
2024-03-07T10:22:33.046Z,1.25
2024-03-07T10:23:35.261Z,1.29
2024-03-07T10:24:37.627Z,1.27
2024-03-07T10:25:42.861Z,1.27
2024-03-07T10:26:45.298Z,1.28
2024-03-07T10:27:47.838Z,1.28
2024-03-07T10:28:50.089Z,1.28
2024-03-07T10:29:56.071Z,1.26
2024-03-07T10:30:58.837Z,1.28
2024-03-07T10:32:05.434Z,1.27
2024-03-07T10:33:05.914Z,1.29
2024-03-07T10:34:08.002Z,1.28
2024-03-07T10:35:10.199Z,1.27
2024-03-07T10:36:12.809Z,1.28
2024-03-07T10:37:16.538Z,1.26
2024-03-07T10:38:18.980Z,1.28
2024-03-07T10:39:21.582Z,1.26
2024-03-07T10:40:24.059Z,1.24
2024-03-07T10:41:28.803Z,1.25
2024-03-07T10:42:32.791Z,1.24
2024-03-07T10:43:38.625Z,1.25
2024-03-07T10:46:17.666Z,1.38
2024-03-07T10:47:20.896Z,1.23
2024-03-07T10:48:27.780Z,1.24
2024-03-07T10:49:33.729Z,1.25
2024-03-07T10:51:08.114Z,1.26
2024-03-07T10:53:47.632Z,1.44
2024-03-07T10:56:18.494Z,1.43
2024-03-07T10:57:33.917Z,1.24
2024-03-07T10:59:01.592Z,1.26
2024-03-07T11:00:05.173Z,1.30
2024-03-07T11:01:10.181Z,1.33
2024-03-07T11:02:35.009Z,1.35
2024-03-07T11:03:38.177Z,1.34
2024-03-07T11:04:42.344Z,1.38
2024-03-07T11:05:46.097Z,1.40
2024-03-07T11:06:48.788Z,1.41
2024-03-07T11:07:51.923Z,1.41
2024-03-07T11:08:56.907Z,1.41
2024-03-07T11:10:02.612Z,1.38
2024-03-07T11:11:05.453Z,1.37
2024-03-07T11:12:09.554Z,1.37
2024-03-07T11:13:15.150Z,1.40
2024-03-07T11:14:18.730Z,1.42
2024-03-07T11:15:23.599Z,1.43
2024-03-07T11:16:26.925Z,1.45
2024-03-07T11:17:29.705Z,1.46
2024-03-07T11:18:32.478Z,1.44
2024-03-07T11:19:35.419Z,1.44
2024-03-07T11:20:40.176Z,1.44
2024-03-07T11:21:42.815Z,1.46
2024-03-07T11:22:45.910Z,1.46
2024-03-07T11:23:48.455Z,1.49
2024-03-07T11:26:14.917Z,1.62
2024-03-07T11:27:17.357Z,1.47
2024-03-07T11:28:19.642Z,1.48
2024-03-07T11:29:42.594Z,1.50
2024-03-07T11:30:44.987Z,1.51
2024-03-07T11:31:47.336Z,1.52
2024-03-07T11:32:55.152Z,1.53
2024-03-07T11:34:17.922Z,1.56
2024-03-07T11:35:33.814Z,1.57
2024-03-07T11:36:43.376Z,1.56
2024-03-07T11:37:46.122Z,1.56
2024-03-07T11:38:49.310Z,1.55
2024-03-07T11:39:51.860Z,1.55
2024-03-07T11:40:54.275Z,1.56
2024-03-07T11:41:56.555Z,1.55
2024-03-07T11:42:58.864Z,1.55
2024-03-07T11:44:01.132Z,1.54
2024-03-07T11:45:04.109Z,1.53
2024-03-07T11:46:07.273Z,1.54
2024-03-07T11:47:09.650Z,1.55
2024-03-07T11:48:12.322Z,1.58
2024-03-07T11:49:14.459Z,1.59
2024-03-07T11:50:17.945Z,1.61
2024-03-07T11:51:20.438Z,1.61
2024-03-07T11:52:22.940Z,1.59
2024-03-07T11:53:26.161Z,1.61
2024-03-07T11:54:28.889Z,1.61
2024-03-07T11:56:44.424Z,1.69
2024-03-07T11:57:46.952Z,1.55
2024-03-07T11:58:52.089Z,1.55
2024-03-07T11:59:54.809Z,1.55
2024-03-07T12:00:57.707Z,1.59
2024-03-07T12:02:00.837Z,1.60
2024-03-07T12:03:03.844Z,1.60
2024-03-07T12:04:07.355Z,1.62
2024-03-07T12:05:10.030Z,1.63
2024-03-07T12:06:14.297Z,1.63
2024-03-07T12:07:17.180Z,1.65
2024-03-07T12:08:19.751Z,1.66
2024-03-07T12:09:23.003Z,1.66
2024-03-07T12:10:26.178Z,1.68
2024-03-07T12:11:29.483Z,1.69
2024-03-07T12:12:32.447Z,1.68
2024-03-07T12:13:36.041Z,1.69
2024-03-07T12:14:38.667Z,1.68
2024-03-07T12:15:41.438Z,1.69
2024-03-07T12:16:44.505Z,1.70
2024-03-07T12:17:48.703Z,1.70
2024-03-07T12:18:51.677Z,1.70
2024-03-07T12:19:54.590Z,1.70
2024-03-07T12:20:57.880Z,1.65
2024-03-07T12:22:04.132Z,1.65
2024-03-07T12:23:07.686Z,1.65
2024-03-07T12:24:14.874Z,1.63
2024-03-07T12:25:19.333Z,1.61
2024-03-07T12:26:21.575Z,1.59
2024-03-07T12:27:23.670Z,1.61
2024-03-07T12:28:27.588Z,1.59
2024-03-07T12:29:29.972Z,1.61
2024-03-07T12:30:38.865Z,1.62
2024-03-07T12:31:43.889Z,1.63
2024-03-07T12:32:50.631Z,1.62
2024-03-07T12:33:53.746Z,1.64
2024-03-07T12:34:56.490Z,1.64
2024-03-07T12:36:00.737Z,1.65
2024-03-07T12:37:04.823Z,1.65
2024-03-07T12:38:08.866Z,1.66
2024-03-07T12:39:26.416Z,1.66
2024-03-07T12:40:29.448Z,1.68
2024-03-07T12:41:31.703Z,1.68
2024-03-07T12:42:34.696Z,1.70
2024-03-07T12:43:36.816Z,1.71
2024-03-07T12:44:42.567Z,1.71
2024-03-07T12:47:00.248Z,1.86
2024-03-07T12:48:02.791Z,1.72
2024-03-07T12:49:05.568Z,1.73
2024-03-07T12:50:08.509Z,1.74
2024-03-07T12:51:10.539Z,1.77
2024-03-07T12:52:13.848Z,1.77
2024-03-07T12:53:16.031Z,1.72
2024-03-07T12:54:18.688Z,1.74
2024-03-07T12:55:22.729Z,1.75
2024-03-07T12:56:24.993Z,1.77
2024-03-07T12:57:27.099Z,1.77
2024-03-07T12:58:29.580Z,1.75
2024-03-07T12:59:32.981Z,1.77
2024-03-07T13:00:36.589Z,1.73
2024-03-07T13:01:38.754Z,1.72
2024-03-07T13:02:40.898Z,1.71
2024-03-07T13:03:43.668Z,1.71
2024-03-07T13:04:46.226Z,1.71
2024-03-07T13:05:48.931Z,1.70
2024-03-07T13:06:50.978Z,1.69
2024-03-07T13:07:53.120Z,1.69
2024-03-07T13:08:55.255Z,1.70
2024-03-07T13:09:57.787Z,1.68
2024-03-07T13:11:00.622Z,1.68
2024-03-07T13:12:03.747Z,1.69
2024-03-07T13:13:06.031Z,1.70
2024-03-07T13:14:08.642Z,1.68
2024-03-07T13:15:11.893Z,1.68
2024-03-07T13:16:17.554Z,1.68
2024-03-07T13:17:19.719Z,1.63
2024-03-07T13:18:22.223Z,1.63
2024-03-07T13:19:26.313Z,1.61
2024-03-07T13:20:28.524Z,1.64
2024-03-07T13:21:31.766Z,1.64
2024-03-07T13:22:34.209Z,1.65
2024-03-07T13:23:36.288Z,1.65
2024-03-07T13:24:38.672Z,1.65
2024-03-07T13:25:41.560Z,1.68
2024-03-07T13:26:48.257Z,1.71
2024-03-07T13:29:03.358Z,1.93
2024-03-07T13:30:07.620Z,1.86
2024-03-07T13:31:10.875Z,1.91
2024-03-07T13:32:13.618Z,1.97
2024-03-07T13:33:16.338Z,1.98
2024-03-07T13:34:18.578Z,2.03
2024-03-07T13:35:20.910Z,2.01
2024-03-07T13:36:23.227Z,2.06
2024-03-07T13:37:25.937Z,2.07
2024-03-07T13:38:29.228Z,2.08
2024-03-07T13:39:32.071Z,2.10
2024-03-07T13:40:35.043Z,2.07
2024-03-07T13:41:44.786Z,2.09
2024-03-07T13:42:47.454Z,2.08
2024-03-07T13:43:49.932Z,2.11
2024-03-07T13:44:52.193Z,2.11
2024-03-07T13:45:55.085Z,2.11
2024-03-07T13:46:58.513Z,2.11
2024-03-07T13:48:01.027Z,2.11
2024-03-07T13:49:04.167Z,2.09
2024-03-07T13:50:14.517Z,2.11
2024-03-07T13:51:11.838Z,2.10
2024-03-07T13:52:14.205Z,2.10
2024-03-07T13:53:16.511Z,2.11
2024-03-07T13:54:18.859Z,2.12
2024-03-07T13:55:22.905Z,2.10
2024-03-07T13:56:47.167Z,2.06
2024-03-07T13:57:53.641Z,2.08
2024-03-07T13:59:05.602Z,2.08
2024-03-07T14:00:24.154Z,2.08
2024-03-07T14:01:37.182Z,2.08
2024-03-07T14:03:16.378Z,2.07
2024-03-07T14:08:30.878Z,2.18
2024-03-07T14:09:52.272Z,2.21
2024-03-07T14:13:06.320Z,2.35
2024-03-07T14:14:44.942Z,2.20
2024-03-07T14:16:14.936Z,2.23
2024-03-07T14:17:53.095Z,2.25
2024-03-07T14:19:23.945Z,2.28
2024-03-07T14:20:54.321Z,2.30
2024-03-07T14:22:00.009Z,2.28
2024-03-07T14:23:06.963Z,2.26
2024-03-07T14:24:47.673Z,2.26
2024-03-07T14:26:14.223Z,2.26
2024-03-07T14:27:20.074Z,2.28
2024-03-07T14:28:31.701Z,2.29
2024-03-07T14:30:52.801Z,2.39
2024-03-07T14:31:56.057Z,2.21
2024-03-07T14:34:30.503Z,2.37
2024-03-07T14:35:42.329Z,2.22
2024-03-07T14:36:50.335Z,2.26
2024-03-07T14:38:16.055Z,2.25